Terminal Aerodrome Forecast
Issued by NWS

Home | Current Version | Previous Version | Graphics & Text | Print | Product List | Glossary On
Versions: 1 2 3 4 5 6 7 8 9 10 11 12 13 14 15 16 17 18 19 20 21 22 23 24 25 26 27 28 29 30 31 32 33
000
FTUS43 KLOT 081300 AAA
TAFMDW
TAF AMD
KMDW 081313Z 0813/0912 29012KT P6SM BKN020 BKN250
     FM081500 30014G22KT P6SM FEW030 BKN050
     FM090100 29008KT P6SM FEW050=

USA.gov is the U.S. government's official web portal to all federal, state and local government web resources and services.